Terminal Aerodrome Forecast
Issued by NWS Shreveport, LA

Home | Current Version | Previous Version | Text Only | Print | Product List | Glossary On
Versions: 1 2 3 4 5 6 7 8 9 10 11 12 13 14 15 16 17 18 19 20 21 22 23 24 25 26 27 28
000
FTUS44 KSHV 261530 AAC
TAFSHV
TAF AMD
KSHV 261530Z 2616/2712 22006KT P6SM FEW017 BKN280
     FM261700 22010KT P6SM SCT035
     FM270900 16004KT 5SM BR BKN015=

USA.gov is the U.S. government's official web portal to all federal, state and local government web resources and services.